createdAt,value
2019-05-21T00:00:28.082Z,26.87
2019-05-21T00:02:58.523Z,24.10
2019-05-21T00:05:29.225Z,24.47
2019-05-21T00:07:59.669Z,21.90
2019-05-21T00:10:30.395Z,18.87
2019-05-21T00:13:00.859Z,19.77
2019-05-21T00:15:31.396Z,19.47
2019-05-21T00:18:01.853Z,19.87
2019-05-21T00:20:32.509Z,18.90
2019-05-21T00:23:03.022Z,18.33
2019-05-21T00:25:33.726Z,17.00
2019-05-21T00:28:39.394Z,16.87
2019-05-21T00:32:03.457Z,17.00
2019-05-21T00:35:29.956Z,16.40
2019-05-21T00:38:54.631Z,15.97
2019-05-21T00:41:59.932Z,14.47
2019-05-21T00:44:36.942Z,15.10
2019-05-21T00:47:09.590Z,14.20
2019-05-21T00:49:40.132Z,13.50
2019-05-21T00:52:10.624Z,14.00
2019-05-21T00:54:41.073Z,11.63
2019-05-21T00:57:13.674Z,10.50
2019-05-21T00:59:44.152Z,9.90
2019-05-21T01:02:14.892Z,9.30
2019-05-21T01:04:59.763Z,8.17
2019-05-21T01:07:17.754Z,8.07
2019-05-21T01:09:48.218Z,6.40
2019-05-21T01:12:18.784Z,6.93
2019-05-21T01:14:49.363Z,5.60
2019-05-21T01:17:19.805Z,6.43
2019-05-21T01:19:50.441Z,6.53
2019-05-21T01:22:20.966Z,6.77
2019-05-21T01:24:51.412Z,6.73
2019-05-21T01:27:22.037Z,6.33
2019-05-21T01:29:52.581Z,6.93
2019-05-21T01:32:23.018Z,6.63
2019-05-21T01:34:53.498Z,6.50
2019-05-21T01:37:23.948Z,6.90
2019-05-21T01:39:54.605Z,5.67
2019-05-21T01:42:25.096Z,5.90
2019-05-21T01:44:55.565Z,5.53
2019-05-21T01:47:26.136Z,5.40
2019-05-21T01:49:56.733Z,5.03
2019-05-21T01:52:27.154Z,4.77
2019-05-21T01:54:57.820Z,5.07
2019-05-21T01:57:28.229Z,5.70
2019-05-21T01:59:59.484Z,5.40
2019-05-21T02:02:29.931Z,5.13
2019-05-21T02:05:00.404Z,5.27
2019-05-21T02:07:31.036Z,5.27
2019-05-21T02:10:01.844Z,6.60
2019-05-21T02:12:32.632Z,5.47
2019-05-21T02:15:03.084Z,5.80
2019-05-21T02:17:33.546Z,5.40
2019-05-21T02:20:04.006Z,5.70
2019-05-21T02:22:34.560Z,5.77
2019-05-21T02:25:06.195Z,5.73
2019-05-21T02:27:36.628Z,4.70
2019-05-21T02:30:10.030Z,4.60
2019-05-21T02:32:40.591Z,3.77
2019-05-21T02:35:11.253Z,5.13
2019-05-21T02:37:41.892Z,4.60
2019-05-21T02:40:13.160Z,3.83
2019-05-21T02:42:43.999Z,3.77
2019-05-21T02:45:15.068Z,3.53
2019-05-21T02:47:45.913Z,3.40
2019-05-21T02:50:16.663Z,4.27
2019-05-21T02:52:47.189Z,3.33
2019-05-21T02:55:18.301Z,3.20
2019-05-21T02:57:48.763Z,4.83
2019-05-21T03:00:49.761Z,3.97
2019-05-21T03:03:22.605Z,3.80
2019-05-21T03:06:10.434Z,4.20
2019-05-21T03:08:25.268Z,4.57
2019-05-21T03:10:55.693Z,4.37
2019-05-21T03:13:26.242Z,4.03
2019-05-21T03:15:56.661Z,4.00
2019-05-21T03:18:27.143Z,5.20
2019-05-21T03:20:58.215Z,4.37
2019-05-21T03:23:28.693Z,3.83
2019-05-21T03:25:59.136Z,3.07
2019-05-21T03:28:29.579Z,3.63
2019-05-21T03:31:00.049Z,3.10
2019-05-21T03:33:30.534Z,3.13
2019-05-21T03:36:01.124Z,2.83
2019-05-21T03:38:31.536Z,2.80
2019-05-21T03:41:02.008Z,2.87
2019-05-21T03:43:32.467Z,3.10
2019-05-21T03:46:03.045Z,2.40
2019-05-21T03:48:33.458Z,2.07
2019-05-21T03:51:03.897Z,2.47
2019-05-21T03:53:34.340Z,2.20
2019-05-21T03:56:04.830Z,2.20
2019-05-21T03:58:35.581Z,1.90
2019-05-21T04:01:06.144Z,2.23
2019-05-21T04:03:36.597Z,1.80
2019-05-21T04:06:07.115Z,2.20
2019-05-21T04:08:37.518Z,2.20
2019-05-21T04:11:08.084Z,1.90
2019-05-21T04:13:38.633Z,2.43
2019-05-21T04:16:19.206Z,2.30
2019-05-21T04:19:11.533Z,2.10
2019-05-21T04:21:42.296Z,2.43
2019-05-21T04:24:12.767Z,2.80
2019-05-21T04:26:43.427Z,2.47
2019-05-21T04:29:14.076Z,1.83
2019-05-21T04:31:44.672Z,2.40
2019-05-21T04:34:15.180Z,1.97
2019-05-21T04:36:45.753Z,2.60
2019-05-21T04:39:16.294Z,2.30
2019-05-21T04:41:46.853Z,2.13
2019-05-21T04:44:17.401Z,2.80
2019-05-21T04:46:47.820Z,1.83
2019-05-21T04:49:18.282Z,2.40
2019-05-21T04:51:48.910Z,2.97
2019-05-21T04:54:19.423Z,3.20
2019-05-21T04:56:49.914Z,2.40
2019-05-21T04:59:20.473Z,2.87
2019-05-21T05:01:51.106Z,2.20
2019-05-21T05:04:23.468Z,2.70
2019-05-21T05:06:54.040Z,2.37
2019-05-21T05:09:24.562Z,2.80
2019-05-21T05:11:55.325Z,3.63
2019-05-21T05:14:25.841Z,2.20
2019-05-21T05:16:56.427Z,1.87
2019-05-21T05:19:27.016Z,2.00
2019-05-21T05:21:57.563Z,1.87
2019-05-21T05:24:28.031Z,1.63
2019-05-21T05:26:58.530Z,2.30
2019-05-21T05:29:29.137Z,1.83
2019-05-21T05:31:59.943Z,2.03
2019-05-21T05:34:30.347Z,2.13
2019-05-21T05:37:00.827Z,1.70
2019-05-21T05:39:31.230Z,2.30
2019-05-21T05:42:02.028Z,1.93
2019-05-21T05:44:32.559Z,2.17
2019-05-21T05:47:03.316Z,1.80
2019-05-21T05:49:38.864Z,2.20
2019-05-21T05:52:09.365Z,2.00
2019-05-21T05:54:39.829Z,1.77
2019-05-21T05:57:10.320Z,1.70
2019-05-21T05:59:40.808Z,1.87
2019-05-21T06:02:11.290Z,2.10
2019-05-21T06:04:41.716Z,1.70
2019-05-21T06:07:12.307Z,1.47
2019-05-21T06:09:42.779Z,2.03
2019-05-21T06:12:13.313Z,1.20
2019-05-21T06:14:43.774Z,1.70
2019-05-21T06:17:14.229Z,1.87
2019-05-21T06:19:44.968Z,1.90
2019-05-21T06:22:15.464Z,1.77
2019-05-21T06:24:45.925Z,1.80
2019-05-21T06:27:16.495Z,2.10
2019-05-21T06:29:47.018Z,1.67
2019-05-21T06:32:17.526Z,1.70
2019-05-21T06:34:48.785Z,1.77
2019-05-21T06:37:19.667Z,1.90
2019-05-21T06:39:50.212Z,2.27
2019-05-21T06:42:20.683Z,1.47
2019-05-21T06:44:51.127Z,1.73
2019-05-21T06:47:21.844Z,1.70
2019-05-21T06:49:52.285Z,1.53
2019-05-21T06:52:22.915Z,1.60
2019-05-21T06:54:53.372Z,1.53
2019-05-21T06:57:23.910Z,1.60
2019-05-21T06:59:54.399Z,1.70
2019-05-21T07:02:24.975Z,1.60
2019-05-21T07:04:55.778Z,1.47
2019-05-21T07:07:26.251Z,1.50
2019-05-21T07:09:56.677Z,1.30
2019-05-21T07:12:27.216Z,1.20
2019-05-21T07:14:57.689Z,1.77
2019-05-21T07:17:28.142Z,1.50
2019-05-21T07:19:58.608Z,2.23
2019-05-21T07:22:29.117Z,1.57
2019-05-21T07:24:59.529Z,1.70
2019-05-21T07:27:30.022Z,1.40
2019-05-21T07:30:00.512Z,1.63
2019-05-21T07:32:31.024Z,1.47
2019-05-21T07:35:01.667Z,1.83
2019-05-21T07:37:32.247Z,1.23
2019-05-21T07:40:02.706Z,1.13
2019-05-21T07:42:33.355Z,1.20
2019-05-21T07:45:03.890Z,1.30
2019-05-21T07:47:34.334Z,0.90
2019-05-21T07:50:05.620Z,1.30
2019-05-21T07:52:36.067Z,1.07
2019-05-21T07:55:06.752Z,1.10
2019-05-21T07:57:37.229Z,1.00
2019-05-21T08:00:09.377Z,1.03
2019-05-21T08:02:40.325Z,0.90
2019-05-21T08:05:11.177Z,1.43
2019-05-21T08:07:41.816Z,1.63
2019-05-21T08:10:12.657Z,1.20
2019-05-21T08:12:43.149Z,1.40
2019-05-21T08:15:14.237Z,1.90
2019-05-21T08:17:44.999Z,1.80
2019-05-21T08:20:16.216Z,1.70
2019-05-21T08:22:46.912Z,2.10
2019-05-21T08:25:17.717Z,2.20
2019-05-21T08:27:48.195Z,1.97
2019-05-21T08:30:19.415Z,2.30
2019-05-21T08:32:50.115Z,1.83
2019-05-21T08:35:20.587Z,1.97
2019-05-21T08:37:51.082Z,1.70
2019-05-21T08:40:21.507Z,1.27
2019-05-21T08:42:52.338Z,1.50
2019-05-21T08:45:22.990Z,1.57
2019-05-21T08:47:53.406Z,1.70
2019-05-21T08:50:24.021Z,2.30
2019-05-21T08:52:54.428Z,1.60
2019-05-21T08:55:25.006Z,1.43
2019-05-21T08:58:06.618Z,2.27
2019-05-21T09:00:28.149Z,1.80
2019-05-21T09:02:58.702Z,2.73
2019-05-21T09:05:29.198Z,1.80
2019-05-21T09:07:59.622Z,2.20
2019-05-21T09:10:30.102Z,1.70
2019-05-21T09:13:00.545Z,2.00
2019-05-21T09:15:31.006Z,2.33
2019-05-21T09:18:01.647Z,2.00
2019-05-21T09:20:32.115Z,1.97
2019-05-21T09:23:02.577Z,1.83
2019-05-21T09:25:33.038Z,1.60
2019-05-21T09:28:03.617Z,2.03
2019-05-21T09:30:34.183Z,2.10
2019-05-21T09:33:04.675Z,2.60
2019-05-21T09:35:35.280Z,2.00
2019-05-21T09:38:05.927Z,3.00
2019-05-21T09:40:36.672Z,2.90
2019-05-21T09:43:07.147Z,3.60
2019-05-21T09:45:37.656Z,2.60
2019-05-21T09:48:08.113Z,2.80
2019-05-21T09:50:38.578Z,2.60
2019-05-21T09:53:08.993Z,2.83
2019-05-21T09:55:39.457Z,1.93
2019-05-21T09:58:35.195Z,2.43
2019-05-21T10:01:18.563Z,2.40
2019-05-21T10:03:54.561Z,2.10
2019-05-21T10:06:25.146Z,2.10
2019-05-21T10:08:55.637Z,2.03
2019-05-21T10:11:26.160Z,2.67
2019-05-21T10:13:56.778Z,2.20
2019-05-21T10:16:27.707Z,2.60
2019-05-21T10:18:58.209Z,2.57
2019-05-21T10:21:28.848Z,3.17
2019-05-21T10:23:59.258Z,2.67
2019-05-21T10:26:29.697Z,2.30
2019-05-21T10:29:00.165Z,1.90
2019-05-21T10:31:30.853Z,1.73
2019-05-21T10:34:01.523Z,1.87
2019-05-21T10:36:31.956Z,4.50
2019-05-21T10:39:04.249Z,1.97
2019-05-21T10:41:34.796Z,1.53
2019-05-21T10:44:05.925Z,1.90
2019-05-21T10:46:36.690Z,2.10
2019-05-21T10:49:07.592Z,1.77
2019-05-21T10:51:38.041Z,1.53
2019-05-21T10:54:08.612Z,2.33
2019-05-21T10:56:47.743Z,1.90
2019-05-21T10:59:11.366Z,2.20
2019-05-21T11:01:59.563Z,2.00
2019-05-21T11:04:53.691Z,1.90
2019-05-21T11:07:24.403Z,1.87
2019-05-21T11:09:55.186Z,1.63
2019-05-21T11:12:26.065Z,1.47
2019-05-21T11:14:56.583Z,1.73
2019-05-21T11:17:27.021Z,1.40
2019-05-21T11:19:57.443Z,2.50
2019-05-21T11:22:28.150Z,2.20
2019-05-21T11:24:58.755Z,1.77
2019-05-21T11:27:29.232Z,2.00
2019-05-21T11:29:59.805Z,2.17
2019-05-21T11:32:30.367Z,1.87
2019-05-21T11:35:00.792Z,2.10
2019-05-21T11:37:31.591Z,2.20
2019-05-21T11:40:02.020Z,2.63
2019-05-21T11:42:32.753Z,2.67
2019-05-21T11:45:03.156Z,3.20
2019-05-21T11:47:33.658Z,3.47
2019-05-21T11:50:04.919Z,3.00
2019-05-21T11:52:35.449Z,3.10
2019-05-21T11:55:06.530Z,3.03
2019-05-21T11:57:37.329Z,3.50
2019-05-21T12:00:08.275Z,3.53
2019-05-21T12:02:38.930Z,3.90
2019-05-21T12:05:10.400Z,3.40
2019-05-21T12:07:40.860Z,3.53
2019-05-21T12:10:11.515Z,4.80
2019-05-21T12:12:42.544Z,3.27
2019-05-21T12:15:13.330Z,4.03
2019-05-21T12:17:43.804Z,3.47
2019-05-21T12:20:16.639Z,3.80
2019-05-21T12:22:47.058Z,3.90
2019-05-21T12:25:17.575Z,3.37
2019-05-21T12:27:48.037Z,3.47
2019-05-21T12:30:18.961Z,3.83
2019-05-21T12:32:49.536Z,3.80
2019-05-21T12:35:20.231Z,3.40
2019-05-21T12:37:50.653Z,4.40
2019-05-21T12:40:21.306Z,4.00
2019-05-21T12:42:51.718Z,4.30
2019-05-21T12:45:22.407Z,3.00
2019-05-21T12:47:52.913Z,3.77
2019-05-21T12:50:23.637Z,4.00
2019-05-21T12:52:54.066Z,3.77
2019-05-21T12:55:24.544Z,4.43
2019-05-21T12:57:55.023Z,4.57
2019-05-21T13:00:30.786Z,4.23
2019-05-21T13:03:01.353Z,4.77
2019-05-21T13:05:31.820Z,4.53
2019-05-21T13:08:02.528Z,4.87
2019-05-21T13:10:33.013Z,5.10
2019-05-21T13:13:03.535Z,4.90
2019-05-21T13:15:33.937Z,4.87
2019-05-21T13:18:04.422Z,5.10
2019-05-21T13:20:34.893Z,5.80
2019-05-21T13:23:05.558Z,6.13
2019-05-21T13:25:37.192Z,5.57
2019-05-21T13:28:07.886Z,5.63
2019-05-21T13:30:38.705Z,5.63
2019-05-21T13:33:09.185Z,5.50
2019-05-21T13:35:39.710Z,6.53
2019-05-21T13:38:13.517Z,5.27
2019-05-21T13:40:42.796Z,5.83
2019-05-21T13:43:13.498Z,5.77
2019-05-21T13:45:44.162Z,5.87
2019-05-21T13:48:14.617Z,5.97
2019-05-21T13:50:45.106Z,5.20
2019-05-21T13:53:15.544Z,5.07
2019-05-21T13:55:46.612Z,5.30
2019-05-21T13:58:17.282Z,5.70
2019-05-21T14:00:50.493Z,6.73
2019-05-21T14:03:20.992Z,5.70
2019-05-21T14:05:51.512Z,5.33
2019-05-21T14:08:22.001Z,6.03
2019-05-21T14:10:52.631Z,5.63
2019-05-21T14:13:23.290Z,5.40
2019-05-21T14:15:53.833Z,5.57
2019-05-21T14:18:24.620Z,5.30
2019-05-21T14:20:55.119Z,5.70
2019-05-21T14:23:25.604Z,5.70
2019-05-21T14:25:56.048Z,5.77
2019-05-21T14:28:26.677Z,5.97
2019-05-21T14:30:57.186Z,5.83
2019-05-21T14:33:27.813Z,5.83
2019-05-21T14:35:58.220Z,5.67
2019-05-21T14:38:28.734Z,6.03
2019-05-21T14:40:59.298Z,6.03
2019-05-21T14:43:29.773Z,5.30
2019-05-21T14:46:00.230Z,5.20
2019-05-21T14:48:30.763Z,5.57
2019-05-21T14:51:01.208Z,6.20
2019-05-21T14:53:31.884Z,5.50
2019-05-21T14:56:02.402Z,5.40
2019-05-21T14:58:32.874Z,5.20
2019-05-21T15:01:03.416Z,6.43
2019-05-21T15:03:34.002Z,5.73
2019-05-21T15:06:04.576Z,6.50
2019-05-21T15:08:35.024Z,6.37
2019-05-21T15:11:05.549Z,6.87
2019-05-21T15:13:36.046Z,5.00
2019-05-21T15:16:06.745Z,6.30
2019-05-21T15:18:37.341Z,6.70
2019-05-21T15:21:19.632Z,5.30
2019-05-21T15:23:50.232Z,6.33
2019-05-21T15:26:24.166Z,5.90
2019-05-21T15:28:54.886Z,7.10
2019-05-21T15:31:25.525Z,6.30
2019-05-21T15:33:56.299Z,5.70
2019-05-21T15:36:26.760Z,7.23
2019-05-21T15:38:57.553Z,5.87
2019-05-21T15:41:30.173Z,7.00
2019-05-21T15:44:01.754Z,5.43
2019-05-21T15:46:47.249Z,5.70
2019-05-21T15:49:06.901Z,6.90
2019-05-21T15:51:37.393Z,5.97
2019-05-21T15:54:07.924Z,6.30
2019-05-21T15:56:38.442Z,5.53
2019-05-21T15:59:09.084Z,5.83
2019-05-21T16:01:40.939Z,6.40
2019-05-21T16:04:15.853Z,5.83
2019-05-21T16:06:44.022Z,6.43
2019-05-21T16:09:14.505Z,6.63
2019-05-21T16:11:44.947Z,6.80
2019-05-21T16:14:15.666Z,7.13
2019-05-21T16:16:46.127Z,6.90
2019-05-21T16:19:16.590Z,8.20
2019-05-21T16:21:47.205Z,8.40
2019-05-21T16:24:17.855Z,8.50
2019-05-21T16:26:48.378Z,9.60
2019-05-21T16:29:26.979Z,9.43
2019-05-21T16:31:57.510Z,8.23
2019-05-21T16:34:31.796Z,9.50
2019-05-21T16:37:00.324Z,9.27
2019-05-21T16:39:31.817Z,8.13
2019-05-21T16:42:02.278Z,9.20
2019-05-21T16:44:32.779Z,10.57
2019-05-21T16:47:03.545Z,9.43
2019-05-21T16:49:34.069Z,9.37
2019-05-21T16:52:04.936Z,8.53
2019-05-21T16:54:35.384Z,8.83
2019-05-21T16:57:05.803Z,9.60
2019-05-21T16:59:36.457Z,10.07
2019-05-21T17:02:07.234Z,9.23
2019-05-21T17:04:37.687Z,10.23
2019-05-21T17:07:08.311Z,9.97
2019-05-21T17:09:38.987Z,8.43
2019-05-21T17:12:09.576Z,9.27
2019-05-21T17:14:41.942Z,9.93
2019-05-21T17:17:12.402Z,9.27
2019-05-21T17:19:42.952Z,9.37
2019-05-21T17:22:13.434Z,10.20
2019-05-21T17:24:44.219Z,10.10
2019-05-21T17:27:14.650Z,9.40
2019-05-21T17:29:45.095Z,8.30
2019-05-21T17:32:15.591Z,8.47
2019-05-21T17:34:46.220Z,8.97
2019-05-21T17:37:16.637Z,10.03
2019-05-21T17:39:47.115Z,9.67
2019-05-21T17:42:17.676Z,8.30
2019-05-21T17:44:48.162Z,9.37
2019-05-21T17:47:19.037Z,8.50
2019-05-21T17:49:49.574Z,9.87
2019-05-21T17:52:20.303Z,8.00
2019-05-21T17:54:56.775Z,10.10
2019-05-21T17:57:24.469Z,9.67
2019-05-21T17:59:55.406Z,9.27
2019-05-21T18:02:28.292Z,8.97
2019-05-21T18:05:00.242Z,9.40
2019-05-21T18:07:30.920Z,8.87
2019-05-21T18:10:02.019Z,9.93
2019-05-21T18:12:33.618Z,8.97
2019-05-21T18:15:05.183Z,11.13
2019-05-21T18:17:37.329Z,11.27
2019-05-21T18:20:09.726Z,9.83
2019-05-21T18:22:41.928Z,10.60
2019-05-21T18:25:12.986Z,10.40
2019-05-21T18:27:43.796Z,11.20
2019-05-21T18:30:15.118Z,11.00
2019-05-21T18:32:46.590Z,10.60
2019-05-21T18:35:17.558Z,10.17
2019-05-21T18:37:48.222Z,10.43
2019-05-21T18:40:19.502Z,10.73
2019-05-21T18:42:49.943Z,11.30
2019-05-21T18:45:20.515Z,11.43
2019-05-21T18:47:50.977Z,10.67
2019-05-21T18:50:34.911Z,10.17
2019-05-21T18:52:54.279Z,10.30
2019-05-21T18:55:24.860Z,11.33
2019-05-21T18:57:55.457Z,11.90
2019-05-21T19:00:26.820Z,10.70
2019-05-21T19:02:58.310Z,12.20
2019-05-21T19:05:29.221Z,11.60
2019-05-21T19:08:05.012Z,13.88
2019-05-21T19:10:35.505Z,11.43
2019-05-21T19:13:06.616Z,12.07
2019-05-21T19:15:37.371Z,11.90
2019-05-21T19:18:08.075Z,12.47
2019-05-21T19:20:38.595Z,12.47
2019-05-21T19:23:09.502Z,11.53
2019-05-21T19:25:40.505Z,12.27
2019-05-21T19:28:11.727Z,13.17
2019-05-21T19:30:42.362Z,11.90
2019-05-21T19:33:12.870Z,12.13
2019-05-21T19:35:43.753Z,11.50
2019-05-21T19:38:14.319Z,11.67
2019-05-21T19:40:44.846Z,11.20
2019-05-21T19:43:15.664Z,11.17
2019-05-21T19:45:46.100Z,11.23
2019-05-21T19:48:16.996Z,11.47
2019-05-21T19:50:47.491Z,10.97
2019-05-21T19:53:18.099Z,11.37
2019-05-21T19:55:48.629Z,10.80
2019-05-21T19:58:19.466Z,11.23
2019-05-21T20:00:55.024Z,10.87
2019-05-21T20:03:26.351Z,11.60
2019-05-21T20:05:58.694Z,12.23
2019-05-21T20:08:29.608Z,11.50
2019-05-21T20:11:00.613Z,12.70
2019-05-21T20:13:32.894Z,12.60
2019-05-21T20:16:04.872Z,13.03
2019-05-21T20:18:35.571Z,12.73
2019-05-21T20:21:08.158Z,12.80
2019-05-21T20:23:39.956Z,11.80
2019-05-21T20:26:15.359Z,12.80
2019-05-21T20:28:46.418Z,11.17
2019-05-21T20:31:17.515Z,12.80
2019-05-21T20:33:50.033Z,12.40
2019-05-21T20:36:21.426Z,14.00
2019-05-21T20:38:52.735Z,14.70
2019-05-21T20:41:24.873Z,12.90
2019-05-21T20:43:59.123Z,14.40
2019-05-21T20:46:28.584Z,12.20
2019-05-21T20:48:59.443Z,15.07
2019-05-21T20:51:31.266Z,15.40
2019-05-21T20:54:02.408Z,14.70
2019-05-21T20:56:33.922Z,14.83
2019-05-21T20:59:04.879Z,15.67
2019-05-21T21:01:36.331Z,16.30
2019-05-21T21:04:07.414Z,14.43
2019-05-21T21:06:37.927Z,14.83
2019-05-21T21:09:12.390Z,15.50
2019-05-21T21:11:43.631Z,13.53
2019-05-21T21:14:18.264Z,16.40
2019-05-21T21:16:48.798Z,16.00
2019-05-21T21:19:19.289Z,13.80
2019-05-21T21:21:50.170Z,14.10
2019-05-21T21:24:20.750Z,15.97
2019-05-21T21:26:51.838Z,14.37
2019-05-21T21:29:22.257Z,15.03
2019-05-21T21:31:52.913Z,14.40
2019-05-21T21:34:23.453Z,15.00
2019-05-21T21:36:53.959Z,15.83
2019-05-21T21:39:24.520Z,13.10
2019-05-21T21:41:55.251Z,14.67
2019-05-21T21:44:34.243Z,14.23
2019-05-21T21:46:59.006Z,14.53
2019-05-21T21:49:31.249Z,14.00
2019-05-21T21:52:02.885Z,14.83
2019-05-21T21:54:33.544Z,13.70
2019-05-21T21:57:04.018Z,15.40
2019-05-21T21:59:34.682Z,14.23
2019-05-21T22:02:19.223Z,14.47
2019-05-21T22:04:50.751Z,14.57
2019-05-21T22:07:22.781Z,15.43
2019-05-21T22:09:53.556Z,17.23
2019-05-21T22:12:26.856Z,17.60
2019-05-21T22:15:02.159Z,16.33
2019-05-21T22:17:33.074Z,18.00
2019-05-21T22:20:04.344Z,17.17
2019-05-21T22:22:34.808Z,17.63
2019-05-21T22:25:06.015Z,16.73
2019-05-21T22:27:36.796Z,19.20
2019-05-21T22:30:08.945Z,18.87
2019-05-21T22:32:39.700Z,17.93
2019-05-21T22:35:10.423Z,17.30
2019-05-21T22:37:41.447Z,16.70
2019-05-21T22:40:11.992Z,18.10
2019-05-21T22:42:42.753Z,16.90
2019-05-21T22:45:13.476Z,16.60
2019-05-21T22:47:43.932Z,15.83
2019-05-21T22:50:14.650Z,16.63
2019-05-21T22:52:45.181Z,18.70
2019-05-21T22:55:15.667Z,16.77
2019-05-21T22:57:46.119Z,16.97
2019-05-21T23:00:16.847Z,17.17
2019-05-21T23:02:47.943Z,16.93
2019-05-21T23:05:18.422Z,16.73
2019-05-21T23:07:49.018Z,18.13
2019-05-21T23:10:19.558Z,17.67
2019-05-21T23:12:50.157Z,16.70
2019-05-21T23:15:25.552Z,16.40
2019-05-21T23:17:53.445Z,14.93
2019-05-21T23:20:27.992Z,17.00
2019-05-21T23:22:58.834Z,16.37
2019-05-21T23:25:30.453Z,15.23
2019-05-21T23:28:01.071Z,14.80
2019-05-21T23:30:32.118Z,12.47
2019-05-21T23:33:04.402Z,14.17
2019-05-21T23:35:35.360Z,15.47
2019-05-21T23:38:06.014Z,13.77
2019-05-21T23:40:36.652Z,13.90
2019-05-21T23:43:08.505Z,14.17
2019-05-21T23:45:39.142Z,16.23
2019-05-21T23:48:12.217Z,14.47
2019-05-21T23:50:42.987Z,14.97
2019-05-21T23:53:13.426Z,15.60
2019-05-21T23:55:44.199Z,16.67
2019-05-21T23:58:15.276Z,15.90
